sensor_id;sensor_type;location;lat;lon;timestamp;pressure;altitude;pressure_sealevel;temperature;humidity
72896;BME280;61036;53.224;6.554;2023-03-21T00:01:54;101574.09;;;9.63;100.00
72896;BME280;61036;53.224;6.554;2023-03-21T00:04:21;101575.75;;;9.50;100.00
72896;BME280;61036;53.224;6.554;2023-03-21T00:06:46;101575.94;;;9.47;100.00
72896;BME280;61036;53.224;6.554;2023-03-21T00:09:12;101573.34;;;9.45;100.00
72896;BME280;61036;53.224;6.554;2023-03-21T00:11:37;101569.00;;;9.43;100.00
72896;BME280;61036;53.224;6.554;2023-03-21T00:14:03;101571.59;;;9.60;100.00
72896;BME280;61036;53.224;6.554;2023-03-21T00:16:30;101561.94;;;9.56;100.00
72896;BME280;61036;53.224;6.554;2023-03-21T00:18:55;101562.75;;;9.42;100.00
72896;BME280;61036;53.224;6.554;2023-03-21T00:21:23;101559.72;;;9.48;100.00
72896;BME280;61036;53.224;6.554;2023-03-21T00:24:00;101557.53;;;9.55;100.00
72896;BME280;61036;53.224;6.554;2023-03-21T00:26:26;101559.41;;;9.53;100.00
72896;BME280;61036;53.224;6.554;2023-03-21T00:28:51;101564.41;;;9.45;100.00
72896;BME280;61036;53.224;6.554;2023-03-21T00:31:19;101551.72;;;9.47;100.00
72896;BME280;61036;53.224;6.554;2023-03-21T00:33:44;101550.66;;;9.49;100.00
72896;BME280;61036;53.224;6.554;2023-03-21T00:36:11;101551.28;;;9.54;100.00
72896;BME280;61036;53.224;6.554;2023-03-21T00:38:37;101547.91;;;9.35;100.00
72896;BME280;61036;53.224;6.554;2023-03-21T00:41:04;101552.84;;;9.43;100.00
72896;BME280;61036;53.224;6.554;2023-03-21T00:43:30;101544.34;;;9.34;100.00
72896;BME280;61036;53.224;6.554;2023-03-21T00:45:57;101547.06;;;9.34;100.00
72896;BME280;61036;53.224;6.554;2023-03-21T00:48:24;101548.78;;;9.35;100.00
72896;BME280;61036;53.224;6.554;2023-03-21T00:50:51;101536.59;;;9.44;100.00
72896;BME280;61036;53.224;6.554;2023-03-21T00:53:17;101540.19;;;9.45;100.00
72896;BME280;61036;53.224;6.554;2023-03-21T00:55:44;101539.09;;;9.33;100.00
72896;BME280;61036;53.224;6.554;2023-03-21T00:58:10;101539.09;;;9.33;100.00
72896;BME280;61036;53.224;6.554;2023-03-21T01:00:36;101537.38;;;9.46;100.00
72896;BME280;61036;53.224;6.554;2023-03-21T01:03:04;101535.31;;;9.35;100.00
72896;BME280;61036;53.224;6.554;2023-03-21T01:05:44;101534.06;;;9.57;100.00
72896;BME280;61036;53.224;6.554;2023-03-21T01:08:39;101534.94;;;9.42;100.00
72896;BME280;61036;53.224;6.554;2023-03-21T01:11:15;101530.03;;;9.34;100.00
72896;BME280;61036;53.224;6.554;2023-03-21T01:13:43;101529.94;;;9.35;100.00
72896;BME280;61036;53.224;6.554;2023-03-21T01:16:09;101523.84;;;9.48;100.00
72896;BME280;61036;53.224;6.554;2023-03-21T01:18:37;101533.03;;;9.44;100.00
72896;BME280;61036;53.224;6.554;2023-03-21T01:21:06;101527.78;;;9.56;100.00
72896;BME280;61036;53.224;6.554;2023-03-21T01:23:32;101515.41;;;9.54;100.00
72896;BME280;61036;53.224;6.554;2023-03-21T01:25:57;101521.69;;;9.38;100.00
72896;BME280;61036;53.224;6.554;2023-03-21T01:28:25;101513.25;;;9.45;100.00
72896;BME280;61036;53.224;6.554;2023-03-21T01:30:52;101514.31;;;9.42;100.00
72896;BME280;61036;53.224;6.554;2023-03-21T01:33:19;101514.06;;;9.31;100.00
72896;BME280;61036;53.224;6.554;2023-03-21T01:35:45;101511.63;;;9.42;100.00
72896;BME280;61036;53.224;6.554;2023-03-21T01:38:11;101510.97;;;9.53;100.00
72896;BME280;61036;53.224;6.554;2023-03-21T01:40:45;101507.16;;;9.57;100.00
72896;BME280;61036;53.224;6.554;2023-03-21T01:43:29;101507.97;;;9.43;100.00
72896;BME280;61036;53.224;6.554;2023-03-21T01:51:42;101506.34;;;9.55;100.00
72896;BME280;61036;53.224;6.554;2023-03-21T01:54:14;101511.38;;;9.61;100.00
72896;BME280;61036;53.224;6.554;2023-03-21T01:56:42;101501.56;;;9.60;100.00
72896;BME280;61036;53.224;6.554;2023-03-21T01:59:24;101507.22;;;9.55;100.00
72896;BME280;61036;53.224;6.554;2023-03-21T02:02:15;101501.56;;;9.60;100.00
72896;BME280;61036;53.224;6.554;2023-03-21T02:05:00;101499.81;;;9.59;100.00
72896;BME280;61036;53.224;6.554;2023-03-21T02:07:30;101498.91;;;9.44;100.00
72896;BME280;61036;53.224;6.554;2023-03-21T02:10:06;101494.81;;;9.53;100.00
72896;BME280;61036;53.224;6.554;2023-03-21T02:12:35;101490.72;;;9.31;100.00
72896;BME280;61036;53.224;6.554;2023-03-21T02:15:02;101488.13;;;9.30;100.00
72896;BME280;61036;53.224;6.554;2023-03-21T02:34:02;101452.81;;;9.79;100.00
72896;BME280;61036;53.224;6.554;2023-03-21T02:37:00;101459.28;;;9.76;100.00
72896;BME280;61036;53.224;6.554;2023-03-21T02:39:38;101448.59;;;9.60;100.00
72896;BME280;61036;53.224;6.554;2023-03-21T02:44:43;101446.63;;;9.62;100.00
72896;BME280;61036;53.224;6.554;2023-03-21T02:47:33;101447.81;;;9.73;100.00
72896;BME280;61036;53.224;6.554;2023-03-21T02:50:12;101445.59;;;9.65;100.00
72896;BME280;61036;53.224;6.554;2023-03-21T02:52:41;101435.78;;;9.64;100.00
72896;BME280;61036;53.224;6.554;2023-03-21T02:55:23;101440.00;;;9.68;100.00
72896;BME280;61036;53.224;6.554;2023-03-21T02:57:55;101441.84;;;9.68;100.00
72896;BME280;61036;53.224;6.554;2023-03-21T03:00:26;101439.34;;;9.65;100.00
72896;BME280;61036;53.224;6.554;2023-03-21T03:02:54;101443.00;;;9.64;100.00
72896;BME280;61036;53.224;6.554;2023-03-21T03:05:22;101437.31;;;9.68;100.00
72896;BME280;61036;53.224;6.554;2023-03-21T03:18:49;101431.16;;;9.80;100.00
72896;BME280;61036;53.224;6.554;2023-03-21T03:23:50;101431.63;;;9.44;100.00
72896;BME280;61036;53.224;6.554;2023-03-21T03:26:33;101433.78;;;9.82;100.00
72896;BME280;61036;53.224;6.554;2023-03-21T03:29:07;101433.19;;;9.77;100.00
72896;BME280;61036;53.224;6.554;2023-03-21T03:31:38;101431.25;;;9.50;100.00
72896;BME280;61036;53.224;6.554;2023-03-21T03:34:09;101421.94;;;9.70;100.00
72896;BME280;61036;53.224;6.554;2023-03-21T03:36:42;101426.75;;;9.51;100.00
72896;BME280;61036;53.224;6.554;2023-03-21T03:39:14;101428.75;;;9.61;100.00
72896;BME280;61036;53.224;6.554;2023-03-21T03:41:50;101429.44;;;9.65;100.00
72896;BME280;61036;53.224;6.554;2023-03-21T03:44:18;101423.34;;;9.47;100.00
72896;BME280;61036;53.224;6.554;2023-03-21T03:47:00;101425.78;;;9.52;100.00
72896;BME280;61036;53.224;6.554;2023-03-21T03:49:31;101420.78;;;9.74;100.00
72896;BME280;61036;53.224;6.554;2023-03-21T03:52:08;101420.03;;;9.72;100.00
72896;BME280;61036;53.224;6.554;2023-03-21T03:54:45;101414.63;;;9.58;100.00
72896;BME280;61036;53.224;6.554;2023-03-21T03:57:12;101414.44;;;9.61;100.00
72896;BME280;61036;53.224;6.554;2023-03-21T03:59:43;101416.16;;;9.62;100.00
72896;BME280;61036;53.224;6.554;2023-03-21T04:02:30;101419.03;;;9.45;100.00
72896;BME280;61036;53.224;6.554;2023-03-21T04:05:00;101414.69;;;9.56;100.00
72896;BME280;61036;53.224;6.554;2023-03-21T04:07:26;101409.31;;;9.56;100.00
72896;BME280;61036;53.224;6.554;2023-03-21T04:09:54;101406.63;;;9.56;100.00
72896;BME280;61036;53.224;6.554;2023-03-21T04:12:20;101402.13;;;9.57;100.00
72896;BME280;61036;53.224;6.554;2023-03-21T04:15:12;101407.13;;;9.49;100.00
72896;BME280;61036;53.224;6.554;2023-03-21T04:17:42;101409.22;;;9.44;100.00
72896;BME280;61036;53.224;6.554;2023-03-21T04:20:10;101406.63;;;9.42;100.00
72896;BME280;61036;53.224;6.554;2023-03-21T04:22:36;101409.91;;;9.61;100.00
72896;BME280;61036;53.224;6.554;2023-03-21T04:25:02;101405.00;;;9.54;100.00
72896;BME280;61036;53.224;6.554;2023-03-21T04:27:30;101403.38;;;9.51;100.00
72896;BME280;61036;53.224;6.554;2023-03-21T04:30:17;101408.53;;;9.40;100.00
72896;BME280;61036;53.224;6.554;2023-03-21T04:32:50;101408.47;;;9.56;100.00
72896;BME280;61036;53.224;6.554;2023-03-21T04:35:19;101399.91;;;9.49;100.00
72896;BME280;61036;53.224;6.554;2023-03-21T04:37:45;101401.34;;;9.55;100.00
72896;BME280;61036;53.224;6.554;2023-03-21T04:40:13;101396.34;;;9.49;100.00
72896;BME280;61036;53.224;6.554;2023-03-21T04:42:42;101400.75;;;9.50;100.00
72896;BME280;61036;53.224;6.554;2023-03-21T04:45:08;101390.84;;;9.50;100.00
72896;BME280;61036;53.224;6.554;2023-03-21T04:47:35;101392.50;;;9.53;100.00
72896;BME280;61036;53.224;6.554;2023-03-21T04:50:00;101392.69;;;9.50;100.00
72896;BME280;61036;53.224;6.554;2023-03-21T04:52:26;101387.03;;;9.54;100.00
72896;BME280;61036;53.224;6.554;2023-03-21T04:54:51;101385.38;;;9.52;100.00
72896;BME280;61036;53.224;6.554;2023-03-21T04:57:17;101386.16;;;9.54;100.00
72896;BME280;61036;53.224;6.554;2023-03-21T04:59:43;101377.72;;;9.60;100.00
72896;BME280;61036;53.224;6.554;2023-03-21T05:02:08;101380.97;;;9.51;100.00
72896;BME280;61036;53.224;6.554;2023-03-21T05:04:34;101380.47;;;9.30;100.00
72896;BME280;61036;53.224;6.554;2023-03-21T05:06:59;101381.50;;;9.42;100.00
72896;BME280;61036;53.224;6.554;2023-03-21T05:09:25;101376.25;;;9.54;100.00
72896;BME280;61036;53.224;6.554;2023-03-21T05:11:51;101375.47;;;9.52;100.00
72896;BME280;61036;53.224;6.554;2023-03-21T05:14:19;101368.34;;;9.66;100.00
72896;BME280;61036;53.224;6.554;2023-03-21T05:16:45;101370.59;;;9.45;100.00
72896;BME280;61036;53.224;6.554;2023-03-21T05:19:22;101363.66;;;9.55;100.00
72896;BME280;61036;53.224;6.554;2023-03-21T05:21:49;101367.78;;;9.46;100.00
72896;BME280;61036;53.224;6.554;2023-03-21T05:24:20;101368.94;;;9.42;100.00
72896;BME280;61036;53.224;6.554;2023-03-21T05:26:47;101372.31;;;9.46;100.00
72896;BME280;61036;53.224;6.554;2023-03-21T05:29:19;101369.50;;;9.47;100.00
72896;BME280;61036;53.224;6.554;2023-03-21T05:31:51;101368.56;;;9.48;100.00
72896;BME280;61036;53.224;6.554;2023-03-21T05:34:18;101367.31;;;9.54;100.00
72896;BME280;61036;53.224;6.554;2023-03-21T05:36:43;101364.91;;;9.49;100.00
72896;BME280;61036;53.224;6.554;2023-03-21T05:39:10;101373.84;;;9.50;100.00
72896;BME280;61036;53.224;6.554;2023-03-21T05:41:40;101366.34;;;9.55;100.00
72896;BME280;61036;53.224;6.554;2023-03-21T05:44:05;101364.53;;;9.55;100.00
72896;BME280;61036;53.224;6.554;2023-03-21T05:46:31;101359.81;;;9.59;100.00
72896;BME280;61036;53.224;6.554;2023-03-21T05:48:56;101361.44;;;9.61;100.00
72896;BME280;61036;53.224;6.554;2023-03-21T05:51:23;101357.03;;;9.60;100.00
72896;BME280;61036;53.224;6.554;2023-03-21T05:53:49;101360.59;;;9.61;100.00
72896;BME280;61036;53.224;6.554;2023-03-21T05:56:16;101360.66;;;9.74;100.00
72896;BME280;61036;53.224;6.554;2023-03-21T05:58:49;101354.03;;;9.65;100.00
72896;BME280;61036;53.224;6.554;2023-03-21T06:01:15;101354.22;;;9.62;100.00
72896;BME280;61036;53.224;6.554;2023-03-21T06:03:47;101358.28;;;9.55;100.00
72896;BME280;61036;53.224;6.554;2023-03-21T06:06:20;101358.47;;;9.66;100.00
72896;BME280;61036;53.224;6.554;2023-03-21T06:08:52;101359.81;;;9.73;100.00
72896;BME280;61036;53.224;6.554;2023-03-21T06:11:22;101360.00;;;9.70;100.00
72896;BME280;61036;53.224;6.554;2023-03-21T06:13:53;101358.16;;;9.56;100.00
72896;BME280;61036;53.224;6.554;2023-03-21T06:16:21;101358.56;;;9.65;100.00
72896;BME280;61036;53.224;6.554;2023-03-21T06:18:46;101357.88;;;9.61;100.00
72896;BME280;61036;53.224;6.554;2023-03-21T06:21:32;101363.75;;;9.68;100.00
72896;BME280;61036;53.224;6.554;2023-03-21T06:23:58;101361.75;;;9.57;100.00
72896;BME280;61036;53.224;6.554;2023-03-21T06:26:23;101360.59;;;9.61;100.00
72896;BME280;61036;53.224;6.554;2023-03-21T06:28:52;101369.44;;;9.63;100.00
72896;BME280;61036;53.224;6.554;2023-03-21T06:31:18;101364.72;;;9.67;100.00
72896;BME280;61036;53.224;6.554;2023-03-21T06:33:48;101359.13;;;9.70;100.00
72896;BME280;61036;53.224;6.554;2023-03-21T06:36:14;101364.13;;;9.76;100.00
72896;BME280;61036;53.224;6.554;2023-03-21T06:38:40;101364.03;;;9.77;100.00
72896;BME280;61036;53.224;6.554;2023-03-21T06:41:07;101367.50;;;9.94;100.00
72896;BME280;61036;53.224;6.554;2023-03-21T06:43:39;101358.44;;;9.80;100.00
72896;BME280;61036;53.224;6.554;2023-03-21T06:46:05;101361.31;;;9.92;100.00
72896;BME280;61036;53.224;6.554;2023-03-21T06:48:31;101358.22;;;10.12;100.00
72896;BME280;61036;53.224;6.554;2023-03-21T06:50:57;101357.59;;;9.80;100.00
72896;BME280;61036;53.224;6.554;2023-03-21T06:53:25;101359.72;;;9.75;100.00
72896;BME280;61036;53.224;6.554;2023-03-21T06:56:12;101359.50;;;9.92;100.00
72896;BME280;61036;53.224;6.554;2023-03-21T06:58:40;101363.03;;;9.93;100.00
72896;BME280;61036;53.224;6.554;2023-03-21T07:01:09;101353.09;;;9.66;100.00
72896;BME280;61036;53.224;6.554;2023-03-21T07:03:46;101357.50;;;9.81;100.00
72896;BME280;61036;53.224;6.554;2023-03-21T07:06:12;101363.94;;;9.93;100.00
72896;BME280;61036;53.224;6.554;2023-03-21T07:08:39;101365.19;;;9.88;100.00
72896;BME280;61036;53.224;6.554;2023-03-21T07:11:06;101365.00;;;9.91;100.00
72896;BME280;61036;53.224;6.554;2023-03-21T07:13:31;101362.56;;;10.00;100.00
72896;BME280;61036;53.224;6.554;2023-03-21T07:16:02;101362.69;;;9.84;100.00
72896;BME280;61036;53.224;6.554;2023-03-21T07:18:27;101368.16;;;9.97;100.00
72896;BME280;61036;53.224;6.554;2023-03-21T07:20:53;101369.69;;;10.01;100.00
72896;BME280;61036;53.224;6.554;2023-03-21T07:23:21;101373.34;;;10.29;100.00
72896;BME280;61036;53.224;6.554;2023-03-21T07:25:48;101368.16;;;10.12;100.00
72896;BME280;61036;53.224;6.554;2023-03-21T07:28:14;101372.38;;;10.01;100.00
72896;BME280;61036;53.224;6.554;2023-03-21T07:30:40;101372.09;;;9.92;100.00
72896;BME280;61036;53.224;6.554;2023-03-21T07:33:06;101369.69;;;10.01;100.00
72896;BME280;61036;53.224;6.554;2023-03-21T07:35:32;101368.63;;;9.90;100.00
72896;BME280;61036;53.224;6.554;2023-03-21T07:37:58;101366.69;;;10.06;100.00
72896;BME280;61036;53.224;6.554;2023-03-21T07:40:24;101370.84;;;9.97;100.00
72896;BME280;61036;53.224;6.554;2023-03-21T07:42:49;101365.72;;;10.21;100.00
72896;BME280;61036;53.224;6.554;2023-03-21T07:45:26;101367.38;;;9.95;100.00
72896;BME280;61036;53.224;6.554;2023-03-21T07:47:52;101366.06;;;9.88;100.00
72896;BME280;61036;53.224;6.554;2023-03-21T07:50:19;101361.31;;;9.92;100.00
72896;BME280;61036;53.224;6.554;2023-03-21T07:52:45;101365.94;;;10.04;100.00
72896;BME280;61036;53.224;6.554;2023-03-21T07:55:10;101367.00;;;10.01;100.00
72896;BME280;61036;53.224;6.554;2023-03-21T07:57:36;101367.56;;;9.92;100.00
72896;BME280;61036;53.224;6.554;2023-03-21T08:00:03;101368.50;;;10.34;100.00
72896;BME280;61036;53.224;6.554;2023-03-21T08:02:38;101365.13;;;10.30;100.00
72896;BME280;61036;53.224;6.554;2023-03-21T08:05:04;101360.13;;;10.39;100.00
72896;BME280;61036;53.224;6.554;2023-03-21T08:07:30;101361.84;;;10.25;100.00
72896;BME280;61036;53.224;6.554;2023-03-21T08:09:55;101361.66;;;10.28;100.00
72896;BME280;61036;53.224;6.554;2023-03-21T08:12:21;101355.75;;;10.50;100.00
72896;BME280;61036;53.224;6.554;2023-03-21T08:14:46;101354.06;;;10.21;100.00
72896;BME280;61036;53.224;6.554;2023-03-21T08:17:12;101358.22;;;10.12;100.00
72896;BME280;61036;53.224;6.554;2023-03-21T08:19:37;101349.06;;;10.15;100.00
72896;BME280;61036;53.224;6.554;2023-03-21T08:22:03;101345.88;;;10.22;100.00
72896;BME280;61036;53.224;6.554;2023-03-21T08:24:30;101344.03;;;10.37;100.00
72896;BME280;61036;53.224;6.554;2023-03-21T08:26:55;101342.56;;;10.46;100.00
72896;BME280;61036;53.224;6.554;2023-03-21T08:29:21;101341.75;;;10.31;100.00
72896;BME280;61036;53.224;6.554;2023-03-21T08:31:47;101338.09;;;10.32;100.00
72896;BME280;61036;53.224;6.554;2023-03-21T08:34:13;101335.44;;;10.45;100.00
72896;BME280;61036;53.224;6.554;2023-03-21T08:36:38;101336.72;;;10.25;100.00
72896;BME280;61036;53.224;6.554;2023-03-21T08:39:04;101338.09;;;10.32;100.00
72896;BME280;61036;53.224;6.554;2023-03-21T08:41:34;101339.03;;;10.17;100.00
72896;BME280;61036;53.224;6.554;2023-03-21T08:44:00;101349.53;;;10.21;100.00
72896;BME280;61036;53.224;6.554;2023-03-21T08:46:25;101346.75;;;10.23;100.00
72896;BME280;61036;53.224;6.554;2023-03-21T08:48:51;101345.31;;;10.17;100.00
72896;BME280;61036;53.224;6.554;2023-03-21T08:51:17;101343.69;;;10.15;100.00
72896;BME280;61036;53.224;6.554;2023-03-21T08:53:42;101343.69;;;10.15;100.00
72896;BME280;61036;53.224;6.554;2023-03-21T08:56:09;101339.44;;;10.11;100.00
72896;BME280;61036;53.224;6.554;2023-03-21T08:58:36;101341.75;;;10.31;100.00
72896;BME280;61036;53.224;6.554;2023-03-21T09:01:03;101344.63;;;10.14;100.00
72896;BME280;61036;53.224;6.554;2023-03-21T09:03:28;101344.19;;;9.93;100.00
72896;BME280;61036;53.224;6.554;2023-03-21T09:05:54;101337.47;;;10.00;100.00
72896;BME280;61036;53.224;6.554;2023-03-21T09:08:20;101338.78;;;10.07;100.00
72896;BME280;61036;53.224;6.554;2023-03-21T09:10:54;101340.09;;;10.56;100.00
72896;BME280;61036;53.224;6.554;2023-03-21T09:13:20;101336.25;;;10.33;100.00
72896;BME280;61036;53.224;6.554;2023-03-21T09:15:46;101330.13;;;10.43;100.00
72896;BME280;61036;53.224;6.554;2023-03-21T09:18:12;101326.94;;;10.51;100.00
72896;BME280;61036;53.224;6.554;2023-03-21T09:20:39;101329.53;;;10.52;100.00
72896;BME280;61036;53.224;6.554;2023-03-21T09:23:08;101313.72;;;10.34;100.00
72896;BME280;61036;53.224;6.554;2023-03-21T09:25:35;101310.28;;;10.17;100.00
72896;BME280;61036;53.224;6.554;2023-03-21T09:28:01;101305.59;;;10.06;100.00
72896;BME280;61036;53.224;6.554;2023-03-21T09:30:30;101311.63;;;10.10;100.00
72896;BME280;61036;53.224;6.554;2023-03-21T09:33:01;101313.19;;;10.14;100.00
72896;BME280;61036;53.224;6.554;2023-03-21T09:35:28;101309.75;;;10.25;100.00
72896;BME280;61036;53.224;6.554;2023-03-21T09:37:54;101311.81;;;10.21;100.00
72896;BME280;61036;53.224;6.554;2023-03-21T09:43:34;101315.28;;;10.23;100.00
72896;BME280;61036;53.224;6.554;2023-03-21T09:46:07;101310.63;;;10.25;100.00
72896;BME280;61036;53.224;6.554;2023-03-21T09:48:53;101307.56;;;10.32;100.00
72896;BME280;61036;53.224;6.554;2023-03-21T09:51:25;101310.16;;;10.19;100.00
72896;BME280;61036;53.224;6.554;2023-03-21T09:53:54;101308.31;;;10.34;100.00
72896;BME280;61036;53.224;6.554;2023-03-21T09:56:22;101311.88;;;10.20;100.00
72896;BME280;61036;53.224;6.554;2023-03-21T09:58:54;101307.31;;;10.07;100.00
72896;BME280;61036;53.224;6.554;2023-03-21T10:01:25;101304.81;;;10.04;100.00
72896;BME280;61036;53.224;6.554;2023-03-21T10:03:59;101307.81;;;10.00;100.00
72896;BME280;61036;53.224;6.554;2023-03-21T10:06:27;101301.78;;;9.96;100.00
72896;BME280;61036;53.224;6.554;2023-03-21T10:09:01;101297.81;;;10.02;100.00
72896;BME280;61036;53.224;6.554;2023-03-21T10:11:41;101301.78;;;10.23;100.00
72896;BME280;61036;53.224;6.554;2023-03-21T10:14:17;101293.41;;;10.28;100.00
72896;BME280;61036;53.224;6.554;2023-03-21T10:16:47;101297.03;;;10.00;100.00
72896;BME280;61036;53.224;6.554;2023-03-21T10:19:17;101299.50;;;10.17;100.00
72896;BME280;61036;53.224;6.554;2023-03-21T10:21:46;101297.34;;;9.95;100.00
72896;BME280;61036;53.224;6.554;2023-03-21T10:24:17;101299.41;;;10.04;100.00
72896;BME280;61036;53.224;6.554;2023-03-21T10:26:45;101289.00;;;10.13;100.00
72896;BME280;61036;53.224;6.554;2023-03-21T10:29:13;101293.22;;;10.17;100.00
72896;BME280;61036;53.224;6.554;2023-03-21T10:31:41;101296.13;;;10.14;100.00
72896;BME280;61036;53.224;6.554;2023-03-21T10:34:17;101277.63;;;10.22;100.00
72896;BME280;61036;53.224;6.554;2023-03-21T10:36:45;101285.53;;;10.11;100.00
72896;BME280;61036;53.224;6.554;2023-03-21T10:39:33;101287.84;;;10.17;100.00
72896;BME280;61036;53.224;6.554;2023-03-21T10:42:00;101278.06;;;10.43;100.00
72896;BME280;61036;53.224;6.554;2023-03-21T10:44:34;101279.28;;;10.64;100.00
72896;BME280;61036;53.224;6.554;2023-03-21T10:47:05;101286.22;;;10.81;100.00
72896;BME280;61036;53.224;6.554;2023-03-21T10:49:32;101278.38;;;10.38;100.00
72896;BME280;61036;53.224;6.554;2023-03-21T10:52:01;101279.44;;;10.75;100.00
72896;BME280;61036;53.224;6.554;2023-03-21T10:54:30;101269.72;;;10.73;100.00
72896;BME280;61036;53.224;6.554;2023-03-21T10:57:05;101260.03;;;10.83;100.00
72896;BME280;61036;53.224;6.554;2023-03-21T10:59:37;101260.03;;;11.09;100.00
72896;BME280;61036;53.224;6.554;2023-03-21T11:02:05;101249.75;;;10.88;100.00
72896;BME280;61036;53.224;6.554;2023-03-21T11:04:31;101249.09;;;10.72;100.00
72896;BME280;61036;53.224;6.554;2023-03-21T11:07:03;101252.78;;;10.96;100.00
72896;BME280;61036;53.224;6.554;2023-03-21T11:09:58;101243.50;;;10.88;100.00
72896;BME280;61036;53.224;6.554;2023-03-21T11:12:36;101243.69;;;11.36;100.00
72896;BME280;61036;53.224;6.554;2023-03-21T11:15:26;101241.91;;;11.60;100.00
72896;BME280;61036;53.224;6.554;2023-03-21T11:17:53;101243.09;;;11.19;100.00
72896;BME280;61036;53.224;6.554;2023-03-21T11:20:19;101243.38;;;11.28;100.00
72896;BME280;61036;53.224;6.554;2023-03-21T11:22:45;101234.97;;;11.19;100.00
72896;BME280;61036;53.224;6.554;2023-03-21T11:25:31;101230.50;;;11.94;100.00
72896;BME280;61036;53.224;6.554;2023-03-21T11:28:06;101225.44;;;11.89;100.00
72896;BME280;61036;53.224;6.554;2023-03-21T11:30:33;101232.88;;;11.49;100.00
72896;BME280;61036;53.224;6.554;2023-03-21T11:33:03;101227.06;;;11.79;100.00
72896;BME280;61036;53.224;6.554;2023-03-21T11:35:36;101226.06;;;11.93;100.00
72896;BME280;61036;53.224;6.554;2023-03-21T11:38:02;101228.03;;;11.90;100.00
72896;BME280;61036;53.224;6.554;2023-03-21T11:40:35;101219.09;;;12.25;100.00
72896;BME280;61036;53.224;6.554;2023-03-21T11:45:33;101201.53;;;11.96;100.00
72896;BME280;61036;53.224;6.554;2023-03-21T11:48:02;101195.59;;;11.90;100.00
72896;BME280;61036;53.224;6.554;2023-03-21T11:50:39;101203.19;;;11.85;100.00
72896;BME280;61036;53.224;6.554;2023-03-21T11:53:34;101196.78;;;12.34;100.00
72896;BME280;61036;53.224;6.554;2023-03-21T11:56:28;101199.56;;;12.33;100.00
72896;BME280;61036;53.224;6.554;2023-03-21T11:59:07;101192.50;;;12.08;100.00
72896;BME280;61036;53.224;6.554;2023-03-21T12:12:26;101181.28;;;12.01;100.00
72896;BME280;61036;53.224;6.554;2023-03-21T12:15:13;101181.56;;;11.73;100.00
72896;BME280;61036;53.224;6.554;2023-03-21T12:20:48;101180.59;;;11.50;100.00
72896;BME280;61036;53.224;6.554;2023-03-21T12:23:42;101174.56;;;11.70;100.00
72896;BME280;61036;53.224;6.554;2023-03-21T12:39:29;101163.03;;;11.68;100.00
72896;BME280;61036;53.224;6.554;2023-03-21T12:43:16;101164.69;;;11.82;100.00
72896;BME280;61036;53.224;6.554;2023-03-21T12:45:16;101159.50;;;11.79;100.00
72896;BME280;61036;53.224;6.554;2023-03-21T12:47:50;101159.63;;;11.53;100.00
72896;BME280;61036;53.224;6.554;2023-03-21T12:50:24;101160.03;;;11.84;100.00
72896;BME280;61036;53.224;6.554;2023-03-21T12:52:55;101157.63;;;11.68;100.00
72896;BME280;61036;53.224;6.554;2023-03-21T12:55:24;101156.09;;;11.64;100.00
72896;BME280;61036;53.224;6.554;2023-03-21T12:57:57;101143.97;;;11.70;100.00
72896;BME280;61036;53.224;6.554;2023-03-21T13:00:37;101137.13;;;11.89;100.00
72896;BME280;61036;53.224;6.554;2023-03-21T13:03:12;101128.94;;;11.78;100.00
72896;BME280;61036;53.224;6.554;2023-03-21T13:08:37;101120.53;;;11.94;100.00
72896;BME280;61036;53.224;6.554;2023-03-21T13:11:07;101118.75;;;11.58;100.00
72896;BME280;61036;53.224;6.554;2023-03-21T13:16:45;101115.03;;;12.31;100.00
72896;BME280;61036;53.224;6.554;2023-03-21T13:19:29;101113.81;;;12.46;100.00
72896;BME280;61036;53.224;6.554;2023-03-21T13:24:45;101097.53;;;12.24;100.00
72896;BME280;61036;53.224;6.554;2023-03-21T13:27:29;101085.31;;;12.76;100.00
72896;BME280;61036;53.224;6.554;2023-03-21T13:30:00;101078.88;;;12.99;100.00
72896;BME280;61036;53.224;6.554;2023-03-21T13:35:22;101077.44;;;12.62;100.00
72896;BME280;61036;53.224;6.554;2023-03-21T13:40:26;101075.97;;;12.57;100.00
72896;BME280;61036;53.224;6.554;2023-03-21T13:42:58;101072.50;;;12.55;100.00
72896;BME280;61036;53.224;6.554;2023-03-21T13:45:31;101075.81;;;12.48;100.00
72896;BME280;61036;53.224;6.554;2023-03-21T13:48:05;101073.97;;;12.37;100.00
72896;BME280;61036;53.224;6.554;2023-03-21T13:50:49;101069.91;;;12.54;100.00
72896;BME280;61036;53.224;6.554;2023-03-21T13:53:19;101072.25;;;12.92;100.00
72896;BME280;61036;53.224;6.554;2023-03-21T13:55:56;101061.69;;;12.55;100.00
72896;BME280;61036;53.224;6.554;2023-03-21T13:58:23;101050.59;;;12.92;100.00
72896;BME280;61036;53.224;6.554;2023-03-21T14:04:11;101044.13;;;12.61;100.00
72896;BME280;61036;53.224;6.554;2023-03-21T14:06:45;101034.13;;;12.39;100.00
72896;BME280;61036;53.224;6.554;2023-03-21T14:09:20;101028.72;;;12.39;100.00
72896;BME280;61036;53.224;6.554;2023-03-21T14:11:49;101028.72;;;12.39;100.00
72896;BME280;61036;53.224;6.554;2023-03-21T14:14:20;101027.75;;;12.63;100.00
72896;BME280;61036;53.224;6.554;2023-03-21T14:16:48;101023.56;;;12.47;100.00
72896;BME280;61036;53.224;6.554;2023-03-21T14:19:16;101028.84;;;12.82;100.00
72896;BME280;61036;53.224;6.554;2023-03-21T14:21:48;101015.09;;;13.29;100.00
72896;BME280;61036;53.224;6.554;2023-03-21T14:24:16;101006.09;;;13.40;100.00
72896;BME280;61036;53.224;6.554;2023-03-21T14:26:48;100999.69;;;13.62;100.00
72896;BME280;61036;53.224;6.554;2023-03-21T14:29:28;100994.81;;;13.56;100.00
72896;BME280;61036;53.224;6.554;2023-03-21T14:31:56;100992.47;;;13.30;100.00